sensor_id;sensor_type;location;lat;lon;timestamp;pressure;altitude;pressure_sealevel;temperature;humidity
38630;BME280;24384;51.988;4.644;2023-09-07T00:00:10;101952.19;;;22.86;82.47
38630;BME280;24384;51.988;4.644;2023-09-07T00:02:36;101945.59;;;22.78;83.79
38630;BME280;24384;51.988;4.644;2023-09-07T00:05:01;101946.22;;;22.81;82.81
38630;BME280;24384;51.988;4.644;2023-09-07T00:07:26;101944.16;;;22.72;84.24
38630;BME280;24384;51.988;4.644;2023-09-07T00:09:52;101932.66;;;22.70;84.30
38630;BME280;24384;51.988;4.644;2023-09-07T00:12:17;101942.75;;;22.66;84.75
38630;BME280;24384;51.988;4.644;2023-09-07T00:14:42;101935.97;;;22.61;83.67
38630;BME280;24384;51.988;4.644;2023-09-07T00:17:07;101941.03;;;22.38;85.32
38630;BME280;24384;51.988;4.644;2023-09-07T00:19:33;101936.63;;;22.37;85.24
38630;BME280;24384;51.988;4.644;2023-09-07T00:22:01;101937.03;;;22.31;86.22
38630;BME280;24384;51.988;4.644;2023-09-07T00:24:27;101936.81;;;22.20;86.96
38630;BME280;24384;51.988;4.644;2023-09-07T00:26:52;101940.63;;;21.88;89.79
38630;BME280;24384;51.988;4.644;2023-09-07T00:29:18;101943.13;;;21.77;91.66
38630;BME280;24384;51.988;4.644;2023-09-07T00:31:43;101941.41;;;21.61;91.69
38630;BME280;24384;51.988;4.644;2023-09-07T00:34:09;101945.63;;;21.51;91.98
38630;BME280;24384;51.988;4.644;2023-09-07T00:36:34;101946.44;;;21.37;93.01
38630;BME280;24384;51.988;4.644;2023-09-07T00:39:00;101940.59;;;21.31;92.91
38630;BME280;24384;51.988;4.644;2023-09-07T00:41:25;101942.22;;;21.33;92.69
38630;BME280;24384;51.988;4.644;2023-09-07T00:43:50;101939.16;;;21.39;92.83
38630;BME280;24384;51.988;4.644;2023-09-07T00:46:16;101934.47;;;21.43;91.69
38630;BME280;24384;51.988;4.644;2023-09-07T00:48:41;101933.78;;;21.39;91.75
38630;BME280;24384;51.988;4.644;2023-09-07T00:51:06;101935.53;;;21.40;91.96
38630;BME280;24384;51.988;4.644;2023-09-07T00:53:32;101935.81;;;21.36;92.13
38630;BME280;24384;51.988;4.644;2023-09-07T00:55:58;101930.91;;;21.42;91.49
38630;BME280;24384;51.988;4.644;2023-09-07T00:58:24;101933.97;;;21.36;91.35
38630;BME280;24384;51.988;4.644;2023-09-07T01:00:49;101936.19;;;21.44;91.37
38630;BME280;24384;51.988;4.644;2023-09-07T01:03:15;101925.72;;;21.25;92.87
38630;BME280;24384;51.988;4.644;2023-09-07T01:05:56;101921.78;;;21.16;93.57
38630;BME280;24384;51.988;4.644;2023-09-07T01:08:25;101919.59;;;21.23;92.31
38630;BME280;24384;51.988;4.644;2023-09-07T01:10:51;101916.34;;;21.32;92.12
38630;BME280;24384;51.988;4.644;2023-09-07T01:13:18;101922.56;;;21.18;92.61
38630;BME280;24384;51.988;4.644;2023-09-07T01:15:43;101917.69;;;21.25;92.25
38630;BME280;24384;51.988;4.644;2023-09-07T01:18:09;101922.09;;;21.26;92.24
38630;BME280;24384;51.988;4.644;2023-09-07T01:20:36;101921.31;;;21.24;93.08
38630;BME280;24384;51.988;4.644;2023-09-07T01:23:03;101923.44;;;21.33;92.78
38630;BME280;24384;51.988;4.644;2023-09-07T01:25:29;101917.88;;;21.36;92.66
38630;BME280;24384;51.988;4.644;2023-09-07T01:27:56;101917.69;;;21.39;92.93
38630;BME280;24384;51.988;4.644;2023-09-07T01:30:21;101918.69;;;21.53;91.18
38630;BME280;24384;51.988;4.644;2023-09-07T01:32:47;101915.06;;;21.54;91.02
38630;BME280;24384;51.988;4.644;2023-09-07T01:35:14;101912.56;;;21.51;90.97
38630;BME280;24384;51.988;4.644;2023-09-07T01:37:41;101908.81;;;21.53;90.42
38630;BME280;24384;51.988;4.644;2023-09-07T01:40:07;101907.94;;;21.53;91.64
38630;BME280;24384;51.988;4.644;2023-09-07T01:42:33;101903.63;;;21.50;91.39
38630;BME280;24384;51.988;4.644;2023-09-07T01:44:58;101907.84;;;21.54;90.53
38630;BME280;24384;51.988;4.644;2023-09-07T01:47:24;101912.00;;;21.60;90.25
38630;BME280;24384;51.988;4.644;2023-09-07T01:49:49;101911.09;;;21.59;90.57
38630;BME280;24384;51.988;4.644;2023-09-07T01:52:14;101906.25;;;21.66;89.38
38630;BME280;24384;51.988;4.644;2023-09-07T01:54:39;101910.63;;;21.67;88.87
38630;BME280;24384;51.988;4.644;2023-09-07T01:57:05;101903.34;;;21.69;88.61
38630;BME280;24384;51.988;4.644;2023-09-07T01:59:30;101913.41;;;21.80;87.31
38630;BME280;24384;51.988;4.644;2023-09-07T02:01:55;101913.50;;;21.78;87.10
38630;BME280;24384;51.988;4.644;2023-09-07T02:04:20;101914.16;;;21.82;87.13
38630;BME280;24384;51.988;4.644;2023-09-07T02:06:46;101912.34;;;21.68;86.63
38630;BME280;24384;51.988;4.644;2023-09-07T02:09:11;101912.34;;;21.68;86.62
38630;BME280;24384;51.988;4.644;2023-09-07T02:11:36;101917.53;;;21.71;86.48
38630;BME280;24384;51.988;4.644;2023-09-07T02:14:01;101919.66;;;21.66;87.09
38630;BME280;24384;51.988;4.644;2023-09-07T02:16:27;101923.66;;;21.59;87.13
38630;BME280;24384;51.988;4.644;2023-09-07T02:19:00;101930.38;;;21.52;88.10
38630;BME280;24384;51.988;4.644;2023-09-07T02:21:26;101918.56;;;21.40;88.00
38630;BME280;24384;51.988;4.644;2023-09-07T02:23:51;101922.75;;;21.29;89.09
38630;BME280;24384;51.988;4.644;2023-09-07T02:26:16;101922.09;;;21.26;89.80
38630;BME280;24384;51.988;4.644;2023-09-07T02:28:41;101922.28;;;21.23;89.96
38630;BME280;24384;51.988;4.644;2023-09-07T02:31:07;101913.16;;;21.11;90.53
38630;BME280;24384;51.988;4.644;2023-09-07T02:33:33;101912.31;;;21.10;90.78
38630;BME280;24384;51.988;4.644;2023-09-07T02:35:59;101915.94;;;21.09;91.11
38630;BME280;24384;51.988;4.644;2023-09-07T02:38:24;101909.22;;;21.02;91.42
38630;BME280;24384;51.988;4.644;2023-09-07T02:40:50;101910.84;;;21.05;91.19
38630;BME280;24384;51.988;4.644;2023-09-07T02:43:15;101901.38;;;20.99;91.21
38630;BME280;24384;51.988;4.644;2023-09-07T02:45:41;101915.16;;;20.93;92.06
38630;BME280;24384;51.988;4.644;2023-09-07T02:48:06;101919.44;;;20.96;92.02
38630;BME280;24384;51.988;4.644;2023-09-07T02:50:33;101919.91;;;20.88;91.90
38630;BME280;24384;51.988;4.644;2023-09-07T02:52:59;101908.59;;;20.83;92.97
38630;BME280;24384;51.988;4.644;2023-09-07T02:55:25;101916.16;;;20.76;92.92
38630;BME280;24384;51.988;4.644;2023-09-07T02:57:51;101918.56;;;20.81;92.76
38630;BME280;24384;51.988;4.644;2023-09-07T03:00:16;101922.78;;;20.85;91.84
38630;BME280;24384;51.988;4.644;2023-09-07T03:02:43;101927.25;;;20.70;92.87
38630;BME280;24384;51.988;4.644;2023-09-07T03:05:08;101922.91;;;20.67;93.99
38630;BME280;24384;51.988;4.644;2023-09-07T03:07:33;101922.56;;;20.73;92.89
38630;BME280;24384;51.988;4.644;2023-09-07T03:09:59;101921.59;;;20.74;92.60
38630;BME280;24384;51.988;4.644;2023-09-07T03:12:24;101912.19;;;20.67;92.39
38630;BME280;24384;51.988;4.644;2023-09-07T03:14:49;101917.19;;;20.73;92.19
38630;BME280;24384;51.988;4.644;2023-09-07T03:17:16;101918.94;;;20.74;91.74
38630;BME280;24384;51.988;4.644;2023-09-07T03:19:41;101922.94;;;20.82;90.97
38630;BME280;24384;51.988;4.644;2023-09-07T03:22:07;101923.66;;;20.85;90.67
38630;BME280;24384;51.988;4.644;2023-09-07T03:24:32;101916.16;;;20.76;90.65
38630;BME280;24384;51.988;4.644;2023-09-07T03:26:57;101919.78;;;20.75;90.72
38630;BME280;24384;51.988;4.644;2023-09-07T03:29:24;101916.16;;;20.76;90.91
38630;BME280;24384;51.988;4.644;2023-09-07T03:31:51;101910.44;;;20.66;90.38
38630;BME280;24384;51.988;4.644;2023-09-07T03:34:16;101912.94;;;20.69;90.70
38630;BME280;24384;51.988;4.644;2023-09-07T03:36:41;101916.59;;;20.68;90.58
38630;BME280;24384;51.988;4.644;2023-09-07T03:39:06;101911.16;;;20.70;90.63
38630;BME280;24384;51.988;4.644;2023-09-07T03:41:33;101915.44;;;20.72;90.66
38630;BME280;24384;51.988;4.644;2023-09-07T03:43:59;101915.00;;;20.64;90.19
38630;BME280;24384;51.988;4.644;2023-09-07T03:46:24;101906.41;;;20.59;91.32
38630;BME280;24384;51.988;4.644;2023-09-07T03:48:50;101904.66;;;20.58;91.08
38630;BME280;24384;51.988;4.644;2023-09-07T03:51:15;101906.06;;;20.65;91.15
38630;BME280;24384;51.988;4.644;2023-09-07T03:53:40;101912.88;;;20.55;91.46
38630;BME280;24384;51.988;4.644;2023-09-07T03:56:05;101912.13;;;20.53;90.99
38630;BME280;24384;51.988;4.644;2023-09-07T03:58:31;101918.69;;;20.47;91.01
38630;BME280;24384;51.988;4.644;2023-09-07T04:00:58;101912.47;;;20.47;91.37
38630;BME280;24384;51.988;4.644;2023-09-07T04:03:24;101902.97;;;20.41;91.52
38630;BME280;24384;51.988;4.644;2023-09-07T04:05:50;101912.81;;;20.41;91.67
38630;BME280;24384;51.988;4.644;2023-09-07T04:08:15;101912.63;;;20.28;90.17
38630;BME280;24384;51.988;4.644;2023-09-07T04:10:41;101917.06;;;20.29;91.70
38630;BME280;24384;51.988;4.644;2023-09-07T04:13:06;101916.28;;;20.11;92.49
38630;BME280;24384;51.988;4.644;2023-09-07T04:15:42;101932.94;;;20.00;94.04
38630;BME280;24384;51.988;4.644;2023-09-07T04:18:09;101926.97;;;19.79;94.94
38630;BME280;24384;51.988;4.644;2023-09-07T04:20:34;101919.47;;;19.85;94.62
38630;BME280;24384;51.988;4.644;2023-09-07T04:22:59;101923.25;;;19.81;94.88
38630;BME280;24384;51.988;4.644;2023-09-07T04:25:25;101921.47;;;19.82;95.15
38630;BME280;24384;51.988;4.644;2023-09-07T04:27:51;101914.94;;;19.70;95.51
38630;BME280;24384;51.988;4.644;2023-09-07T04:30:16;101923.97;;;19.67;96.81
38630;BME280;24384;51.988;4.644;2023-09-07T04:32:41;101917.94;;;19.64;96.67
38630;BME280;24384;51.988;4.644;2023-09-07T04:35:07;101923.44;;;19.61;98.07
38630;BME280;24384;51.988;4.644;2023-09-07T04:37:32;101927.06;;;19.26;99.34
38630;BME280;24384;51.988;4.644;2023-09-07T04:39:57;101927.16;;;19.25;100.00
38630;BME280;24384;51.988;4.644;2023-09-07T04:42:23;101931.09;;;19.18;100.00
38630;BME280;24384;51.988;4.644;2023-09-07T04:44:48;101935.00;;;19.10;100.00
38630;BME280;24384;51.988;4.644;2023-09-07T04:47:14;101933.38;;;19.08;100.00
38630;BME280;24384;51.988;4.644;2023-09-07T04:49:40;101924.63;;;19.04;100.00
38630;BME280;24384;51.988;4.644;2023-09-07T04:52:06;101936.50;;;19.16;100.00
38630;BME280;24384;51.988;4.644;2023-09-07T04:54:32;101935.56;;;19.17;100.00
38630;BME280;24384;51.988;4.644;2023-09-07T04:56:57;101924.41;;;19.09;100.00
38630;BME280;24384;51.988;4.644;2023-09-07T04:59:22;101926.75;;;18.98;100.00
38630;BME280;24384;51.988;4.644;2023-09-07T05:01:47;101932.97;;;19.16;100.00
38630;BME280;24384;51.988;4.644;2023-09-07T05:04:13;101931.47;;;19.10;100.00
38630;BME280;24384;51.988;4.644;2023-09-07T05:06:38;101931.56;;;19.08;100.00
38630;BME280;24384;51.988;4.644;2023-09-07T05:09:05;101937.91;;;19.06;100.00
38630;BME280;24384;51.988;4.644;2023-09-07T05:11:31;101942.94;;;19.12;100.00
38630;BME280;24384;51.988;4.644;2023-09-07T05:13:59;101945.41;;;18.99;100.00
38630;BME280;24384;51.988;4.644;2023-09-07T05:16:24;101951.72;;;18.79;100.00
38630;BME280;24384;51.988;4.644;2023-09-07T05:18:49;101955.56;;;18.73;100.00
38630;BME280;24384;51.988;4.644;2023-09-07T05:21:15;101949.03;;;18.61;100.00
38630;BME280;24384;51.988;4.644;2023-09-07T05:23:40;101950.75;;;18.63;100.00
38630;BME280;24384;51.988;4.644;2023-09-07T05:26:06;101948.72;;;18.68;100.00
38630;BME280;24384;51.988;4.644;2023-09-07T05:28:31;101950.59;;;18.85;100.00
38630;BME280;24384;51.988;4.644;2023-09-07T05:30:56;101950.97;;;18.94;100.00
38630;BME280;24384;51.988;4.644;2023-09-07T05:33:22;101945.00;;;19.07;100.00
38630;BME280;24384;51.988;4.644;2023-09-07T05:35:47;101952.56;;;19.16;100.00
38630;BME280;24384;51.988;4.644;2023-09-07T05:38:12;101946.41;;;19.31;100.00
38630;BME280;24384;51.988;4.644;2023-09-07T05:40:40;101950.66;;;19.36;100.00
38630;BME280;24384;51.988;4.644;2023-09-07T05:43:05;101948.19;;;19.48;100.00
38630;BME280;24384;51.988;4.644;2023-09-07T05:45:36;101942.75;;;19.50;100.00
38630;BME280;24384;51.988;4.644;2023-09-07T05:48:04;101949.34;;;19.60;100.00
38630;BME280;24384;51.988;4.644;2023-09-07T05:50:30;101952.94;;;19.77;99.71
38630;BME280;24384;51.988;4.644;2023-09-07T05:52:56;101951.28;;;19.74;100.00
38630;BME280;24384;51.988;4.644;2023-09-07T05:55:21;101954.22;;;19.70;100.00
38630;BME280;24384;51.988;4.644;2023-09-07T05:57:48;101960.22;;;19.57;100.00
38630;BME280;24384;51.988;4.644;2023-09-07T06:00:14;101959.97;;;19.79;100.00
38630;BME280;24384;51.988;4.644;2023-09-07T06:02:44;101961.63;;;19.98;99.95
38630;BME280;24384;51.988;4.644;2023-09-07T06:05:09;101965.19;;;20.14;98.83
38630;BME280;24384;51.988;4.644;2023-09-07T06:07:35;101961.28;;;20.20;99.19
38630;BME280;24384;51.988;4.644;2023-09-07T06:10:00;101966.56;;;20.37;97.04
38630;BME280;24384;51.988;4.644;2023-09-07T06:12:25;101967.94;;;20.45;96.64
38630;BME280;24384;51.988;4.644;2023-09-07T06:14:51;101971.75;;;20.56;95.13
38630;BME280;24384;51.988;4.644;2023-09-07T06:17:16;101972.59;;;20.57;94.55
38630;BME280;24384;51.988;4.644;2023-09-07T06:19:41;101973.84;;;20.67;93.96
38630;BME280;24384;51.988;4.644;2023-09-07T06:22:07;101970.63;;;20.77;91.91
38630;BME280;24384;51.988;4.644;2023-09-07T06:24:32;101981.38;;;20.91;92.41
38630;BME280;24384;51.988;4.644;2023-09-07T06:26:58;101984.34;;;20.86;92.23
38630;BME280;24384;51.988;4.644;2023-09-07T06:29:23;101977.59;;;20.95;90.60
38630;BME280;24384;51.988;4.644;2023-09-07T06:31:48;101981.72;;;21.01;90.14
38630;BME280;24384;51.988;4.644;2023-09-07T06:34:15;101989.44;;;21.21;91.72
38630;BME280;24384;51.988;4.644;2023-09-07T06:36:40;101989.44;;;21.21;89.92
38630;BME280;24384;51.988;4.644;2023-09-07T06:39:06;101985.94;;;21.35;89.27
38630;BME280;24384;51.988;4.644;2023-09-07T06:41:31;101988.56;;;21.51;89.46
38630;BME280;24384;51.988;4.644;2023-09-07T06:43:57;101982.78;;;21.43;87.60
38630;BME280;24384;51.988;4.644;2023-09-07T06:46:22;101986.50;;;21.40;88.65
38630;BME280;24384;51.988;4.644;2023-09-07T06:48:48;101984.47;;;21.44;88.12
38630;BME280;24384;51.988;4.644;2023-09-07T06:51:13;101980.50;;;21.51;87.38
38630;BME280;24384;51.988;4.644;2023-09-07T06:53:38;101977.44;;;21.57;87.22
38630;BME280;24384;51.988;4.644;2023-09-07T06:56:04;101985.03;;;21.79;88.93
38630;BME280;24384;51.988;4.644;2023-09-07T06:58:29;101981.69;;;21.76;87.54
38630;BME280;24384;51.988;4.644;2023-09-07T07:00:58;101986.09;;;21.77;88.16
38630;BME280;24384;51.988;4.644;2023-09-07T07:03:26;101986.00;;;21.78;89.14
38630;BME280;24384;51.988;4.644;2023-09-07T07:05:52;101992.69;;;21.71;87.64
38630;BME280;24384;51.988;4.644;2023-09-07T07:08:17;101992.22;;;21.79;88.55
38630;BME280;24384;51.988;4.644;2023-09-07T07:10:42;101994.03;;;22.07;86.40
38630;BME280;24384;51.988;4.644;2023-09-07T07:13:08;101988.75;;;22.20;87.48
38630;BME280;24384;51.988;4.644;2023-09-07T07:15:33;101988.47;;;22.25;85.49
38630;BME280;24384;51.988;4.644;2023-09-07T07:18:00;101991.72;;;22.15;87.42
38630;BME280;24384;51.988;4.644;2023-09-07T07:20:25;101995.81;;;22.21;87.44
38630;BME280;24384;51.988;4.644;2023-09-07T07:22:50;101997.00;;;22.31;85.84
38630;BME280;24384;51.988;4.644;2023-09-07T07:25:16;101991.63;;;22.17;87.37
38630;BME280;24384;51.988;4.644;2023-09-07T07:27:42;101992.78;;;22.13;89.56
38630;BME280;24384;51.988;4.644;2023-09-07T07:30:08;101994.56;;;22.41;85.49
38630;BME280;24384;51.988;4.644;2023-09-07T07:32:33;101987.25;;;22.58;83.53
38630;BME280;24384;51.988;4.644;2023-09-07T07:34:58;101987.25;;;22.58;87.76
38630;BME280;24384;51.988;4.644;2023-09-07T07:37:23;101989.81;;;22.59;85.21
38630;BME280;24384;51.988;4.644;2023-09-07T07:39:49;101986.00;;;22.63;88.44
38630;BME280;24384;51.988;4.644;2023-09-07T07:42:14;101981.19;;;22.81;84.62
38630;BME280;24384;51.988;4.644;2023-09-07T07:44:39;101967.75;;;22.81;83.89
38630;BME280;24384;51.988;4.644;2023-09-07T07:47:05;101967.31;;;22.87;83.69
38630;BME280;24384;51.988;4.644;2023-09-07T07:49:30;101965.53;;;23.01;85.97
38630;BME280;24384;51.988;4.644;2023-09-07T07:51:59;101972.38;;;23.19;83.67
38630;BME280;24384;51.988;4.644;2023-09-07T07:54:24;101966.84;;;23.08;84.39
38630;BME280;24384;51.988;4.644;2023-09-07T07:56:50;101958.09;;;23.32;82.87
38630;BME280;24384;51.988;4.644;2023-09-07T07:59:15;101959.28;;;23.53;82.06
38630;BME280;24384;51.988;4.644;2023-09-07T08:01:40;101965.50;;;23.54;80.77
38630;BME280;24384;51.988;4.644;2023-09-07T08:04:07;101958.84;;;23.47;81.19
38630;BME280;24384;51.988;4.644;2023-09-07T08:06:32;101964.97;;;23.62;79.30
38630;BME280;24384;51.988;4.644;2023-09-07T08:08:57;101964.63;;;23.66;82.04
38630;BME280;24384;51.988;4.644;2023-09-07T08:11:22;101956.91;;;23.74;80.62
38630;BME280;24384;51.988;4.644;2023-09-07T08:13:49;101957.97;;;23.85;80.42
38630;BME280;24384;51.988;4.644;2023-09-07T08:16:14;101965.94;;;23.86;82.01
38630;BME280;24384;51.988;4.644;2023-09-07T08:18:39;101961.47;;;24.11;81.29
38630;BME280;24384;51.988;4.644;2023-09-07T08:21:05;101953.81;;;24.18;78.27
38630;BME280;24384;51.988;4.644;2023-09-07T08:23:30;101950.84;;;24.34;77.23
38630;BME280;24384;51.988;4.644;2023-09-07T08:25:56;101957.31;;;24.31;76.94
38630;BME280;24384;51.988;4.644;2023-09-07T08:28:22;101954.22;;;24.24;79.10
38630;BME280;24384;51.988;4.644;2023-09-07T08:30:49;101942.69;;;24.22;79.83
38630;BME280;24384;51.988;4.644;2023-09-07T08:33:16;101945.03;;;24.51;76.01
38630;BME280;24384;51.988;4.644;2023-09-07T08:35:41;101949.44;;;24.65;75.94
38630;BME280;24384;51.988;4.644;2023-09-07T08:38:10;101942.13;;;24.54;77.38
38630;BME280;24384;51.988;4.644;2023-09-07T08:40:36;101946.91;;;24.75;77.40
38630;BME280;24384;51.988;4.644;2023-09-07T08:43:04;101942.53;;;24.85;75.36
38630;BME280;24384;51.988;4.644;2023-09-07T08:45:30;101947.16;;;25.07;72.98
38630;BME280;24384;51.988;4.644;2023-09-07T08:47:57;101939.41;;;25.02;74.34
38630;BME280;24384;51.988;4.644;2023-09-07T08:50:23;101934.75;;;25.16;73.99
38630;BME280;24384;51.988;4.644;2023-09-07T08:52:53;101942.59;;;25.08;73.59
38630;BME280;24384;51.988;4.644;2023-09-07T08:55:20;101938.97;;;25.31;73.66
38630;BME280;24384;51.988;4.644;2023-09-07T08:57:48;101942.94;;;25.50;74.23
38630;BME280;24384;51.988;4.644;2023-09-07T09:00:14;101935.69;;;25.62;72.63
38630;BME280;24384;51.988;4.644;2023-09-07T09:02:42;101935.47;;;25.65;71.50
38630;BME280;24384;51.988;4.644;2023-09-07T09:05:09;101940.50;;;25.92;69.78
38630;BME280;24384;51.988;4.644;2023-09-07T09:07:35;101935.69;;;26.07;72.06
38630;BME280;24384;51.988;4.644;2023-09-07T09:10:07;101935.38;;;26.33;69.67
38630;BME280;24384;51.988;4.644;2023-09-07T09:12:34;101927.03;;;26.57;70.30
38630;BME280;24384;51.988;4.644;2023-09-07T09:15:00;101937.75;;;26.58;67.19
38630;BME280;24384;51.988;4.644;2023-09-07T09:17:28;101941.34;;;26.48;68.89
38630;BME280;24384;51.988;4.644;2023-09-07T09:19:53;101937.53;;;26.50;66.16
38630;BME280;24384;51.988;4.644;2023-09-07T09:22:18;101932.47;;;26.68;66.03
38630;BME280;24384;51.988;4.644;2023-09-07T09:24:47;101938.34;;;26.73;67.30
38630;BME280;24384;51.988;4.644;2023-09-07T09:27:13;101936.75;;;26.92;65.03
38630;BME280;24384;51.988;4.644;2023-09-07T09:29:38;101929.63;;;26.91;65.26
38630;BME280;24384;51.988;4.644;2023-09-07T09:32:04;101940.06;;;26.74;65.62
38630;BME280;24384;51.988;4.644;2023-09-07T09:34:37;101940.81;;;26.97;65.15
38630;BME280;24384;51.988;4.644;2023-09-07T09:37:03;101946.28;;;27.07;63.07
38630;BME280;24384;51.988;4.644;2023-09-07T09:39:29;101942.72;;;27.07;63.01
38630;BME280;24384;51.988;4.644;2023-09-07T09:41:55;101938.81;;;27.00;69.98
38630;BME280;24384;51.988;4.644;2023-09-07T09:44:22;101936.69;;;27.24;64.03
38630;BME280;24384;51.988;4.644;2023-09-07T09:46:52;101930.22;;;27.37;63.54
38630;BME280;24384;51.988;4.644;2023-09-07T09:49:20;101938.22;;;27.69;60.85
38630;BME280;24384;51.988;4.644;2023-09-07T09:51:48;101929.44;;;27.86;61.38
38630;BME280;24384;51.988;4.644;2023-09-07T09:54:13;101939.47;;;27.96;60.43
38630;BME280;24384;51.988;4.644;2023-09-07T09:56:39;101934.81;;;28.08;63.44
38630;BME280;24384;51.988;4.644;2023-09-07T09:59:04;101943.91;;;27.97;60.01
38630;BME280;24384;51.988;4.644;2023-09-07T10:01:29;101937.69;;;27.75;62.62
38630;BME280;24384;51.988;4.644;2023-09-07T10:03:56;101931.13;;;28.28;58.96
38630;BME280;24384;51.988;4.644;2023-09-07T10:06:27;101935.72;;;28.47;57.82
38630;BME280;24384;51.988;4.644;2023-09-07T10:09:02;101929.72;;;28.53;58.21
38630;BME280;24384;51.988;4.644;2023-09-07T10:11:38;101927.03;;;28.63;56.26
38630;BME280;24384;51.988;4.644;2023-09-07T10:14:05;101927.72;;;28.55;57.33
38630;BME280;24384;51.988;4.644;2023-09-07T10:16:44;101914.34;;;28.73;57.04
38630;BME280;24384;51.988;4.644;2023-09-07T10:19:17;101920.44;;;28.85;58.70
38630;BME280;24384;51.988;4.644;2023-09-07T10:21:42;101908.97;;;29.11;57.33
38630;BME280;24384;51.988;4.644;2023-09-07T10:24:08;101921.75;;;29.48;55.16
38630;BME280;24384;51.988;4.644;2023-09-07T10:26:33;101914.22;;;29.70;51.88
38630;BME280;24384;51.988;4.644;2023-09-07T10:29:00;101915.63;;;29.74;52.60
38630;BME280;24384;51.988;4.644;2023-09-07T10:31:27;101914.38;;;29.68;51.99
38630;BME280;24384;51.988;4.644;2023-09-07T10:33:52;101918.22;;;29.75;52.31
38630;BME280;24384;51.988;4.644;2023-09-07T10:36:22;101917.66;;;29.99;49.58
38630;BME280;24384;51.988;4.644;2023-09-07T10:38:48;101922.03;;;29.82;52.62
38630;BME280;24384;51.988;4.644;2023-09-07T10:41:13;101909.63;;;29.80;52.29
38630;BME280;24384;51.988;4.644;2023-09-07T10:43:47;101905.16;;;30.07;50.00
38630;BME280;24384;51.988;4.644;2023-09-07T10:46:13;101906.16;;;30.06;51.28
38630;BME280;24384;51.988;4.644;2023-09-07T10:48:38;101902.78;;;30.40;49.71
38630;BME280;24384;51.988;4.644;2023-09-07T10:51:05;101900.13;;;30.30;51.75
38630;BME280;24384;51.988;4.644;2023-09-07T10:53:32;101894.53;;;30.31;50.11
38630;BME280;24384;51.988;4.644;2023-09-07T10:55:59;101903.19;;;30.45;53.40
38630;BME280;24384;51.988;4.644;2023-09-07T10:58:29;101896.63;;;30.74;45.90
38630;BME280;24384;51.988;4.644;2023-09-07T11:00:57;101897.41;;;30.66;46.50
38630;BME280;24384;51.988;4.644;2023-09-07T11:03:24;101904.91;;;30.46;49.33
38630;BME280;24384;51.988;4.644;2023-09-07T11:05:54;101895.88;;;30.45;46.49
38630;BME280;24384;51.988;4.644;2023-09-07T11:08:21;101890.16;;;30.75;46.66
38630;BME280;24384;51.988;4.644;2023-09-07T11:10:47;101885.34;;;30.86;46.38
38630;BME280;24384;51.988;4.644;2023-09-07T11:13:12;101889.69;;;30.97;47.02
38630;BME280;24384;51.988;4.644;2023-09-07T11:15:37;101890.66;;;30.96;45.39
38630;BME280;24384;51.988;4.644;2023-09-07T11:18:07;101886.78;;;31.25;44.69
38630;BME280;24384;51.988;4.644;2023-09-07T11:20:37;101886.69;;;31.43;45.56
38630;BME280;24384;51.988;4.644;2023-09-07T11:23:05;101880.13;;;31.54;44.79
38630;BME280;24384;51.988;4.644;2023-09-07T11:25:34;101885.91;;;31.24;46.39
38630;BME280;24384;51.988;4.644;2023-09-07T11:28:02;101878.06;;;31.21;46.43
38630;BME280;24384;51.988;4.644;2023-09-07T11:30:27;101874.47;;;31.13;44.91
38630;BME280;24384;51.988;4.644;2023-09-07T11:33:00;101867.31;;;31.12;46.89
38630;BME280;24384;51.988;4.644;2023-09-07T11:35:26;101866.97;;;31.49;45.06
38630;BME280;24384;51.988;4.644;2023-09-07T11:37:52;101867.31;;;31.89;43.92
38630;BME280;24384;51.988;4.644;2023-09-07T11:40:17;101866.09;;;31.91;43.93
38630;BME280;24384;51.988;4.644;2023-09-07T11:42:43;101866.97;;;31.92;43.25
38630;BME280;24384;51.988;4.644;2023-09-07T11:45:08;101871.13;;;32.21;43.02
38630;BME280;24384;51.988;4.644;2023-09-07T11:47:34;101861.75;;;32.15;42.04
38630;BME280;24384;51.988;4.644;2023-09-07T11:50:00;101862.97;;;32.29;41.88
38630;BME280;24384;51.988;4.644;2023-09-07T11:52:26;101858.84;;;32.17;44.21
38630;BME280;24384;51.988;4.644;2023-09-07T11:54:51;101851.16;;;32.53;42.01
38630;BME280;24384;51.988;4.644;2023-09-07T11:57:17;101850.84;;;32.48;40.83
38630;BME280;24384;51.988;4.644;2023-09-07T11:59:42;101848.44;;;32.78;41.59
38630;BME280;24384;51.988;4.644;2023-09-07T12:02:07;101841.38;;;33.25;41.39
38630;BME280;24384;51.988;4.644;2023-09-07T12:04:36;101848.06;;;33.53;38.69
38630;BME280;24384;51.988;4.644;2023-09-07T12:07:02;101842.84;;;33.98;38.82
38630;BME280;24384;51.988;4.644;2023-09-07T12:09:28;101839.75;;;33.78;39.05
38630;BME280;24384;51.988;4.644;2023-09-07T12:11:53;101836.25;;;33.93;36.72
38630;BME280;24384;51.988;4.644;2023-09-07T12:14:18;101829.84;;;34.23;38.63
38630;BME280;24384;51.988;4.644;2023-09-07T12:16:44;101822.41;;;34.55;36.71
38630;BME280;24384;51.988;4.644;2023-09-07T12:19:11;101814.72;;;35.34;35.60
38630;BME280;24384;51.988;4.644;2023-09-07T12:21:36;101815.72;;;35.62;34.25
38630;BME280;24384;51.988;4.644;2023-09-07T12:24:02;101813.47;;;36.09;32.79
38630;BME280;24384;51.988;4.644;2023-09-07T12:26:27;101812.81;;;36.57;31.43
38630;BME280;24384;51.988;4.644;2023-09-07T12:28:52;101813.25;;;37.24;30.98
38630;BME280;24384;51.988;4.644;2023-09-07T12:31:17;101824.03;;;37.74;29.90
38630;BME280;24384;51.988;4.644;2023-09-07T12:33:43;101825.31;;;37.85;28.88
38630;BME280;24384;51.988;4.644;2023-09-07T12:36:08;101819.84;;;38.05;28.45
38630;BME280;24384;51.988;4.644;2023-09-07T12:38:36;101822.84;;;38.57;29.05
38630;BME280;24384;51.988;4.644;2023-09-07T12:41:02;101816.44;;;39.48;27.26